createdAt,value
2018-05-27T00:00:22.795Z,4.17
2018-05-27T00:05:25.262Z,4.60
2018-05-27T00:10:27.786Z,5.83
2018-05-27T00:15:30.232Z,4.50
2018-05-27T00:20:32.686Z,4.23
2018-05-27T00:25:35.910Z,4.40
2018-05-27T00:30:38.361Z,4.70
2018-05-27T00:35:40.811Z,4.90
2018-05-27T00:40:43.257Z,5.30
2018-05-27T00:45:46.471Z,5.70
2018-05-27T00:50:48.921Z,5.10
2018-05-27T00:55:51.361Z,5.20
2018-05-27T01:00:53.818Z,5.00
2018-05-27T01:05:57.033Z,4.93
2018-05-27T01:11:00.255Z,6.00
2018-05-27T01:16:02.706Z,5.40
2018-05-27T01:21:06.846Z,6.40
2018-05-27T01:26:10.064Z,5.43
2018-05-27T01:31:13.274Z,5.87
2018-05-27T01:36:15.721Z,6.30
2018-05-27T01:41:18.170Z,6.20
2018-05-27T01:46:20.626Z,5.93
2018-05-27T01:51:23.846Z,6.13
2018-05-27T01:56:26.297Z,6.00
2018-05-27T02:01:28.745Z,5.57
2018-05-27T02:06:31.194Z,6.47
2018-05-27T02:11:34.413Z,6.03
2018-05-27T02:16:36.857Z,6.43
2018-05-27T02:21:39.314Z,6.87
2018-05-27T02:26:42.166Z,6.40
2018-05-27T02:31:45.381Z,6.60
2018-05-27T02:36:48.585Z,7.20
2018-05-27T02:41:51.813Z,6.70
2018-05-27T02:46:54.255Z,7.23
2018-05-27T02:51:56.702Z,7.43
2018-05-27T02:56:59.151Z,7.60
2018-05-27T03:02:02.369Z,7.80
2018-05-27T03:07:04.817Z,8.20
2018-05-27T03:12:07.280Z,8.23
2018-05-27T03:17:09.722Z,7.23
2018-05-27T03:22:12.941Z,7.10
2018-05-27T03:27:15.389Z,7.57
2018-05-27T03:32:17.846Z,9.93
2018-05-27T03:37:20.297Z,8.73
2018-05-27T03:42:22.751Z,8.30
2018-05-27T03:47:25.201Z,8.43
2018-05-27T03:52:27.652Z,8.77
2018-05-27T03:57:30.880Z,8.83
2018-05-27T04:02:33.549Z,8.77
2018-05-27T04:07:47.839Z,8.47
2018-05-27T04:12:50.295Z,8.33
2018-05-27T04:17:53.545Z,8.60
2018-05-27T04:22:55.998Z,8.67
2018-05-27T04:27:59.220Z,8.77
2018-05-27T04:33:01.675Z,9.00
2018-05-27T04:38:04.125Z,9.50
2018-05-27T04:43:06.582Z,9.80
2018-05-27T04:48:09.052Z,10.03
2018-05-27T04:53:12.261Z,9.33
2018-05-27T04:58:15.486Z,11.30
2018-05-27T05:03:18.343Z,10.53
2018-05-27T05:08:20.854Z,10.30
2018-05-27T05:13:24.142Z,9.70
2018-05-27T05:18:26.585Z,9.83
2018-05-27T05:23:29.048Z,10.73
2018-05-27T05:28:31.500Z,11.37
2018-05-27T05:33:33.967Z,11.27
2018-05-27T05:38:36.412Z,10.53
2018-05-27T05:43:38.885Z,9.37
2018-05-27T05:48:41.313Z,10.20
2018-05-27T05:53:43.770Z,9.77
2018-05-27T05:58:46.219Z,8.53
2018-05-27T06:03:48.677Z,8.20
2018-05-27T06:08:51.130Z,7.53
2018-05-27T06:13:54.361Z,7.30
2018-05-27T06:18:56.819Z,7.77
2018-05-27T06:24:00.044Z,7.90
2018-05-27T06:29:02.511Z,8.40
2018-05-27T06:34:05.729Z,7.87
2018-05-27T06:39:08.197Z,7.97
2018-05-27T06:44:11.426Z,7.70
2018-05-27T06:49:13.897Z,7.03
2018-05-27T06:54:17.126Z,7.10
2018-05-27T06:59:19.574Z,6.93
2018-05-27T07:04:22.057Z,6.33
2018-05-27T07:09:24.500Z,5.93
2018-05-27T07:14:26.958Z,6.50
2018-05-27T07:19:30.168Z,5.60
2018-05-27T07:24:33.377Z,4.70
2018-05-27T07:29:35.854Z,4.83
2018-05-27T07:34:39.070Z,4.87
2018-05-27T07:39:41.518Z,4.73
2018-05-27T07:44:43.970Z,4.80
2018-05-27T07:49:46.437Z,5.20
2018-05-27T07:54:48.905Z,5.10
2018-05-27T07:59:52.126Z,4.37
2018-05-27T08:04:54.593Z,4.50
2018-05-27T08:09:57.061Z,4.37
2018-05-27T08:14:59.526Z,4.47
2018-05-27T08:20:02.056Z,5.00
2018-05-27T08:25:04.464Z,4.47
2018-05-27T08:30:07.057Z,4.73
2018-05-27T08:35:09.581Z,4.90
2018-05-27T08:40:12.046Z,4.87
2018-05-27T08:45:14.521Z,4.70
2018-05-27T08:50:17.041Z,4.90
2018-05-27T08:55:19.502Z,4.40
2018-05-27T09:00:22.721Z,4.80
2018-05-27T09:05:25.173Z,4.83
2018-05-27T09:10:27.617Z,5.10
2018-05-27T09:15:30.066Z,5.00
2018-05-27T09:20:33.290Z,4.90
2018-05-27T09:25:35.738Z,5.53
2018-05-27T09:30:38.206Z,5.77
2018-05-27T09:35:40.719Z,5.63
2018-05-27T09:40:43.178Z,5.50
2018-05-27T09:45:45.630Z,5.53
2018-05-27T09:50:48.084Z,5.63
2018-05-27T09:55:50.546Z,5.40
2018-05-27T10:00:53.045Z,5.00
2018-05-27T10:05:55.506Z,5.60
2018-05-27T10:10:57.960Z,5.93
2018-05-27T10:16:00.418Z,5.60
2018-05-27T10:21:02.881Z,5.60
2018-05-27T10:26:05.384Z,5.80
2018-05-27T10:31:07.797Z,5.30
2018-05-27T10:36:10.254Z,5.67
2018-05-27T10:41:12.917Z,5.20
2018-05-27T10:46:15.366Z,4.97
2018-05-27T10:51:18.593Z,5.57
2018-05-27T10:56:21.050Z,5.33
2018-05-27T11:01:23.495Z,5.30
2018-05-27T11:06:25.955Z,5.30
2018-05-27T11:11:28.422Z,6.20
2018-05-27T11:16:30.888Z,5.77
2018-05-27T11:21:33.334Z,5.47
2018-05-27T11:26:35.792Z,5.93
2018-05-27T11:31:39.026Z,5.60
2018-05-27T11:36:41.493Z,5.73
2018-05-27T11:41:43.939Z,5.97
2018-05-27T11:46:46.391Z,6.37
2018-05-27T11:51:48.849Z,5.90
2018-05-27T11:56:52.070Z,5.40
2018-05-27T12:01:54.537Z,5.17
2018-05-27T12:06:57.771Z,5.20
2018-05-27T12:12:00.221Z,5.93
2018-05-27T12:17:02.678Z,5.30
2018-05-27T12:22:05.137Z,5.27
2018-05-27T12:27:07.585Z,5.00
2018-05-27T12:32:10.045Z,5.07
2018-05-27T12:37:12.494Z,5.43
2018-05-27T12:42:14.937Z,5.17
2018-05-27T12:47:17.385Z,5.43
2018-05-27T12:52:19.845Z,5.63
2018-05-27T12:57:23.069Z,5.57
2018-05-27T13:02:25.518Z,5.67
2018-05-27T13:07:28.744Z,6.10
2018-05-27T13:12:31.969Z,5.67
2018-05-27T13:17:34.423Z,5.50
2018-05-27T13:22:36.874Z,6.10
2018-05-27T13:27:39.347Z,5.60
2018-05-27T13:32:41.809Z,5.90
2018-05-27T13:37:44.263Z,5.50
2018-05-27T13:42:46.722Z,5.60
2018-05-27T13:47:49.176Z,5.53
2018-05-27T13:52:51.638Z,5.70
2018-05-27T13:57:54.102Z,6.17
2018-05-27T14:02:56.560Z,5.70
2018-05-27T14:07:59.030Z,5.57
2018-05-27T14:13:01.506Z,5.20
2018-05-27T14:18:04.733Z,5.60
2018-05-27T14:23:07.189Z,5.43
2018-05-27T14:28:10.397Z,5.00
2018-05-27T14:33:13.665Z,4.97
2018-05-27T14:38:16.070Z,5.70
2018-05-27T14:43:18.532Z,5.10
2018-05-27T14:48:20.982Z,5.20
2018-05-27T14:53:23.441Z,5.17
2018-05-27T14:58:26.684Z,4.93
2018-05-27T15:03:29.153Z,4.30
2018-05-27T15:08:32.385Z,4.10
2018-05-27T15:13:34.845Z,4.20
2018-05-27T15:18:38.114Z,4.50
2018-05-27T15:23:40.555Z,4.97
2018-05-27T15:28:43.010Z,5.23
2018-05-27T15:33:45.477Z,5.80
2018-05-27T15:38:47.942Z,5.83
2018-05-27T15:43:50.398Z,6.13
2018-05-27T15:48:52.854Z,5.83
2018-05-27T15:53:55.310Z,6.00
2018-05-27T15:58:57.757Z,6.80
2018-05-27T16:04:00.209Z,7.27
2018-05-27T16:09:02.665Z,6.97
2018-05-27T16:14:05.126Z,7.40
2018-05-27T16:19:08.333Z,7.57
2018-05-27T16:24:10.780Z,8.50
2018-05-27T16:29:13.262Z,9.27
2018-05-27T16:34:15.730Z,10.17
2018-05-27T16:39:18.197Z,10.67
2018-05-27T16:44:20.650Z,14.07
2018-05-27T16:49:23.875Z,9.13
2018-05-27T16:54:26.337Z,8.50
2018-05-27T16:59:28.789Z,8.80
2018-05-27T17:04:31.254Z,8.87
2018-05-27T17:09:33.713Z,9.03
2018-05-27T17:14:36.939Z,8.87
2018-05-27T17:19:39.404Z,10.77
2018-05-27T17:24:42.634Z,9.43
2018-05-27T17:29:45.105Z,10.07
2018-05-27T17:34:47.577Z,9.50
2018-05-27T17:39:50.026Z,8.83
2018-05-27T17:44:52.488Z,9.93
2018-05-27T17:49:54.950Z,9.77
2018-05-27T17:54:57.417Z,10.27
2018-05-27T17:59:59.885Z,9.63
2018-05-27T18:05:02.372Z,10.40
2018-05-27T18:10:04.829Z,10.13
2018-05-27T18:15:07.394Z,10.77
2018-05-27T18:20:10.706Z,11.03
2018-05-27T18:25:13.240Z,11.17
2018-05-27T18:30:15.695Z,11.77
2018-05-27T18:35:18.166Z,12.10
2018-05-27T18:40:20.630Z,11.73
2018-05-27T18:45:23.074Z,11.60
2018-05-27T18:50:25.589Z,11.70
2018-05-27T18:55:28.035Z,11.43
2018-05-27T19:00:30.690Z,11.63
2018-05-27T19:05:33.166Z,11.20
2018-05-27T19:10:35.637Z,10.93
2018-05-27T19:15:38.089Z,11.33
2018-05-27T19:20:41.325Z,11.43
2018-05-27T19:25:43.799Z,10.77
2018-05-27T19:30:46.313Z,10.90
2018-05-27T19:35:48.762Z,11.77
2018-05-27T19:40:51.985Z,11.57
2018-05-27T19:45:54.471Z,10.83
2018-05-27T19:50:56.940Z,10.83
2018-05-27T19:56:00.177Z,12.10
2018-05-27T20:01:02.629Z,11.77
2018-05-27T20:06:05.850Z,11.10
2018-05-27T20:11:08.296Z,10.93
2018-05-27T20:16:10.755Z,11.47
2018-05-27T20:21:13.221Z,11.50
2018-05-27T20:26:15.685Z,12.13
2018-05-27T20:31:18.925Z,11.30
2018-05-27T20:36:21.397Z,12.90
2018-05-27T20:41:23.878Z,11.70
2018-05-27T20:46:27.094Z,11.27
2018-05-27T20:51:29.573Z,11.10
2018-05-27T20:56:32.882Z,12.80
2018-05-27T21:01:35.281Z,13.33
2018-05-27T21:06:37.726Z,14.00
2018-05-27T21:11:40.189Z,13.90
2018-05-27T21:16:42.661Z,12.70
2018-05-27T21:21:45.124Z,12.20
2018-05-27T21:26:47.586Z,12.10
2018-05-27T21:31:50.047Z,12.63
2018-05-27T21:36:52.501Z,13.30
2018-05-27T21:41:54.962Z,13.73
2018-05-27T21:46:58.192Z,13.00
2018-05-27T21:52:00.662Z,15.50
2018-05-27T21:57:03.125Z,14.80
2018-05-27T22:02:05.596Z,15.30
2018-05-27T22:07:08.041Z,15.90
2018-05-27T22:12:10.513Z,14.93
2018-05-27T22:17:13.754Z,15.17
2018-05-27T22:22:16.209Z,13.73
2018-05-27T22:27:19.446Z,14.27
2018-05-27T22:32:21.933Z,14.40
2018-05-27T22:37:24.389Z,15.40
2018-05-27T22:42:28.621Z,15.33
2018-05-27T22:47:31.967Z,15.83
2018-05-27T22:52:34.566Z,15.57
2018-05-27T22:57:37.030Z,16.47
2018-05-27T23:02:39.501Z,16.70
2018-05-27T23:07:41.956Z,17.90
2018-05-27T23:12:44.415Z,17.03
2018-05-27T23:17:46.861Z,16.47
2018-05-27T23:22:49.317Z,16.13
2018-05-27T23:27:51.778Z,16.23
2018-05-27T23:32:54.241Z,15.57
2018-05-27T23:37:56.705Z,15.70
2018-05-27T23:42:59.927Z,15.30
2018-05-27T23:48:02.385Z,16.50
2018-05-27T23:53:04.842Z,14.97
2018-05-27T23:58:07.401Z,14.83
